sensor_id;sensor_type;location;lat;lon;timestamp;temperature;humidity
68691;DHT22;55675;49.588;8.640;2023-04-03T00:00:37;6.00;74.80
68691;DHT22;55675;49.588;8.640;2023-04-03T00:03:03;6.00;75.30
68691;DHT22;55675;49.588;8.640;2023-04-03T00:05:28;5.90;75.40
68691;DHT22;55675;49.588;8.640;2023-04-03T00:07:54;5.90;75.50
68691;DHT22;55675;49.588;8.640;2023-04-03T00:10:19;5.90;75.80
68691;DHT22;55675;49.588;8.640;2023-04-03T00:12:45;5.80;76.10
68691;DHT22;55675;49.588;8.640;2023-04-03T00:15:10;5.80;76.10
68691;DHT22;55675;49.588;8.640;2023-04-03T00:17:36;5.80;76.70
68691;DHT22;55675;49.588;8.640;2023-04-03T00:20:02;5.70;76.40
68691;DHT22;55675;49.588;8.640;2023-04-03T00:22:27;5.70;77.00
68691;DHT22;55675;49.588;8.640;2023-04-03T00:24:54;5.70;76.80
68691;DHT22;55675;49.588;8.640;2023-04-03T00:27:19;5.70;76.90
68691;DHT22;55675;49.588;8.640;2023-04-03T00:29:45;5.60;77.40
68691;DHT22;55675;49.588;8.640;2023-04-03T00:32:10;5.60;77.20
68691;DHT22;55675;49.588;8.640;2023-04-03T00:34:36;5.50;77.20
68691;DHT22;55675;49.588;8.640;2023-04-03T00:37:01;5.50;77.60
68691;DHT22;55675;49.588;8.640;2023-04-03T00:39:26;5.50;77.90
68691;DHT22;55675;49.588;8.640;2023-04-03T00:41:52;5.50;77.90
68691;DHT22;55675;49.588;8.640;2023-04-03T00:44:21;5.40;78.30
68691;DHT22;55675;49.588;8.640;2023-04-03T00:46:47;5.40;78.90
68691;DHT22;55675;49.588;8.640;2023-04-03T00:49:12;5.30;79.00
68691;DHT22;55675;49.588;8.640;2023-04-03T00:51:38;5.30;79.40
68691;DHT22;55675;49.588;8.640;2023-04-03T00:54:04;5.30;79.40
68691;DHT22;55675;49.588;8.640;2023-04-03T00:56:30;5.30;79.70
68691;DHT22;55675;49.588;8.640;2023-04-03T00:59:00;5.30;79.60
68691;DHT22;55675;49.588;8.640;2023-04-03T01:01:27;5.20;79.90
68691;DHT22;55675;49.588;8.640;2023-04-03T01:03:53;5.20;80.80
68691;DHT22;55675;49.588;8.640;2023-04-03T01:06:20;5.20;80.80
68691;DHT22;55675;49.588;8.640;2023-04-03T01:08:47;5.20;81.00
68691;DHT22;55675;49.588;8.640;2023-04-03T01:11:13;5.10;82.00
68691;DHT22;55675;49.588;8.640;2023-04-03T01:13:39;5.00;81.60
68691;DHT22;55675;49.588;8.640;2023-04-03T01:16:05;5.00;81.60
68691;DHT22;55675;49.588;8.640;2023-04-03T01:18:31;5.00;82.80
68691;DHT22;55675;49.588;8.640;2023-04-03T01:23:38;4.90;82.70
68691;DHT22;55675;49.588;8.640;2023-04-03T01:26:06;4.80;82.60
68691;DHT22;55675;49.588;8.640;2023-04-03T01:28:33;4.80;82.70
68691;DHT22;55675;49.588;8.640;2023-04-03T01:31:14;4.70;83.30
68691;DHT22;55675;49.588;8.640;2023-04-03T01:33:41;4.70;83.40
68691;DHT22;55675;49.588;8.640;2023-04-03T01:36:10;4.70;83.30
68691;DHT22;55675;49.588;8.640;2023-04-03T01:38:35;4.60;83.30
68691;DHT22;55675;49.588;8.640;2023-04-03T01:41:01;4.60;83.50
68691;DHT22;55675;49.588;8.640;2023-04-03T01:43:26;4.60;83.90
68691;DHT22;55675;49.588;8.640;2023-04-03T01:45:51;4.60;84.10
68691;DHT22;55675;49.588;8.640;2023-04-03T01:48:19;4.50;84.40
68691;DHT22;55675;49.588;8.640;2023-04-03T01:50:45;4.50;84.80
68691;DHT22;55675;49.588;8.640;2023-04-03T01:53:10;4.50;85.80
68691;DHT22;55675;49.588;8.640;2023-04-03T01:55:36;4.40;86.80
68691;DHT22;55675;49.588;8.640;2023-04-03T01:58:01;4.40;86.90
68691;DHT22;55675;49.588;8.640;2023-04-03T02:00:27;4.40;87.50
68691;DHT22;55675;49.588;8.640;2023-04-03T02:02:52;4.30;87.60
68691;DHT22;55675;49.588;8.640;2023-04-03T02:05:18;4.30;87.60
68691;DHT22;55675;49.588;8.640;2023-04-03T02:07:52;4.30;87.60
68691;DHT22;55675;49.588;8.640;2023-04-03T02:10:18;4.20;87.60
68691;DHT22;55675;49.588;8.640;2023-04-03T02:12:43;4.30;87.50
68691;DHT22;55675;49.588;8.640;2023-04-03T02:15:09;4.20;88.80
68691;DHT22;55675;49.588;8.640;2023-04-03T02:17:35;4.20;89.30
68691;DHT22;55675;49.588;8.640;2023-04-03T02:20:00;4.20;89.10
68691;DHT22;55675;49.588;8.640;2023-04-03T02:22:26;4.10;90.00
68691;DHT22;55675;49.588;8.640;2023-04-03T02:24:51;4.10;90.30
68691;DHT22;55675;49.588;8.640;2023-04-03T02:27:17;4.10;90.00
68691;DHT22;55675;49.588;8.640;2023-04-03T02:29:42;4.10;90.00
68691;DHT22;55675;49.588;8.640;2023-04-03T02:32:08;4.10;89.90
68691;DHT22;55675;49.588;8.640;2023-04-03T02:34:33;4.10;90.10
68691;DHT22;55675;49.588;8.640;2023-04-03T02:36:59;4.10;90.00
68691;DHT22;55675;49.588;8.640;2023-04-03T02:39:25;4.00;89.90
68691;DHT22;55675;49.588;8.640;2023-04-03T02:41:51;4.00;89.80
68691;DHT22;55675;49.588;8.640;2023-04-03T02:44:16;4.00;90.00
68691;DHT22;55675;49.588;8.640;2023-04-03T02:46:43;4.00;90.00
68691;DHT22;55675;49.588;8.640;2023-04-03T02:49:08;4.00;90.00
68691;DHT22;55675;49.588;8.640;2023-04-03T02:51:33;4.00;90.00
68691;DHT22;55675;49.588;8.640;2023-04-03T02:53:59;4.00;90.00
68691;DHT22;55675;49.588;8.640;2023-04-03T02:56:24;3.90;90.00
68691;DHT22;55675;49.588;8.640;2023-04-03T02:58:51;3.90;90.10
68691;DHT22;55675;49.588;8.640;2023-04-03T03:01:17;3.90;90.20
68691;DHT22;55675;49.588;8.640;2023-04-03T03:03:43;3.90;90.20
68691;DHT22;55675;49.588;8.640;2023-04-03T03:06:12;3.90;90.20
68691;DHT22;55675;49.588;8.640;2023-04-03T03:08:38;3.90;90.40
68691;DHT22;55675;49.588;8.640;2023-04-03T03:11:04;3.80;90.60
68691;DHT22;55675;49.588;8.640;2023-04-03T03:13:29;3.80;90.60
68691;DHT22;55675;49.588;8.640;2023-04-03T03:15:55;3.80;90.60
68691;DHT22;55675;49.588;8.640;2023-04-03T03:18:20;3.90;90.50
68691;DHT22;55675;49.588;8.640;2023-04-03T03:20:46;3.80;90.50
68691;DHT22;55675;49.588;8.640;2023-04-03T03:23:11;3.80;90.60
68691;DHT22;55675;49.588;8.640;2023-04-03T03:25:37;3.80;90.50
68691;DHT22;55675;49.588;8.640;2023-04-03T03:28:03;3.80;90.50
68691;DHT22;55675;49.588;8.640;2023-04-03T03:30:29;3.80;90.70
68691;DHT22;55675;49.588;8.640;2023-04-03T03:32:54;3.80;90.60
68691;DHT22;55675;49.588;8.640;2023-04-03T03:35:20;3.70;90.60
68691;DHT22;55675;49.588;8.640;2023-04-03T03:37:45;3.70;90.70
68691;DHT22;55675;49.588;8.640;2023-04-03T03:40:11;3.70;90.70
68691;DHT22;55675;49.588;8.640;2023-04-03T03:42:38;3.70;90.80
68691;DHT22;55675;49.588;8.640;2023-04-03T03:45:03;3.70;90.80
68691;DHT22;55675;49.588;8.640;2023-04-03T03:47:29;3.70;90.80
68691;DHT22;55675;49.588;8.640;2023-04-03T03:49:55;3.70;90.90
68691;DHT22;55675;49.588;8.640;2023-04-03T03:52:20;3.60;90.80
68691;DHT22;55675;49.588;8.640;2023-04-03T03:54:45;3.60;90.90
68691;DHT22;55675;49.588;8.640;2023-04-03T03:57:11;3.50;90.90
68691;DHT22;55675;49.588;8.640;2023-04-03T03:59:36;3.50;91.00
68691;DHT22;55675;49.588;8.640;2023-04-03T04:02:02;3.60;91.10
68691;DHT22;55675;49.588;8.640;2023-04-03T04:04:27;3.50;91.10
68691;DHT22;55675;49.588;8.640;2023-04-03T04:06:53;3.50;91.20
68691;DHT22;55675;49.588;8.640;2023-04-03T04:09:18;3.50;91.20
68691;DHT22;55675;49.588;8.640;2023-04-03T04:11:44;3.50;91.20
68691;DHT22;55675;49.588;8.640;2023-04-03T04:14:10;3.40;91.30
68691;DHT22;55675;49.588;8.640;2023-04-03T04:16:37;3.40;91.30
68691;DHT22;55675;49.588;8.640;2023-04-03T04:19:03;3.40;91.30
68691;DHT22;55675;49.588;8.640;2023-04-03T04:21:28;3.40;91.40
68691;DHT22;55675;49.588;8.640;2023-04-03T04:23:54;3.40;91.30
68691;DHT22;55675;49.588;8.640;2023-04-03T04:26:19;3.40;91.40
68691;DHT22;55675;49.588;8.640;2023-04-03T04:28:45;3.40;91.40
68691;DHT22;55675;49.588;8.640;2023-04-03T04:31:11;3.40;91.40
68691;DHT22;55675;49.588;8.640;2023-04-03T04:33:36;3.30;91.40
68691;DHT22;55675;49.588;8.640;2023-04-03T04:36:01;3.30;91.40
68691;DHT22;55675;49.588;8.640;2023-04-03T04:38:27;3.30;91.40
68691;DHT22;55675;49.588;8.640;2023-04-03T04:40:52;3.30;91.50
68691;DHT22;55675;49.588;8.640;2023-04-03T04:43:18;3.30;91.50
68691;DHT22;55675;49.588;8.640;2023-04-03T04:45:43;3.30;91.50
68691;DHT22;55675;49.588;8.640;2023-04-03T04:48:09;3.20;91.60
68691;DHT22;55675;49.588;8.640;2023-04-03T04:50:34;3.30;91.60
68691;DHT22;55675;49.588;8.640;2023-04-03T04:53:00;3.30;91.60
68691;DHT22;55675;49.588;8.640;2023-04-03T04:55:25;3.30;91.60
68691;DHT22;55675;49.588;8.640;2023-04-03T04:57:51;3.30;91.60
68691;DHT22;55675;49.588;8.640;2023-04-03T05:00:16;3.30;91.60
68691;DHT22;55675;49.588;8.640;2023-04-03T05:02:42;3.30;91.60
68691;DHT22;55675;49.588;8.640;2023-04-03T05:05:08;3.20;91.60
68691;DHT22;55675;49.588;8.640;2023-04-03T05:07:33;3.20;91.60
68691;DHT22;55675;49.588;8.640;2023-04-03T05:10:01;3.20;91.70
68691;DHT22;55675;49.588;8.640;2023-04-03T05:12:26;3.30;91.70
68691;DHT22;55675;49.588;8.640;2023-04-03T05:14:51;3.20;91.70
68691;DHT22;55675;49.588;8.640;2023-04-03T05:17:17;3.20;91.70
68691;DHT22;55675;49.588;8.640;2023-04-03T05:19:42;3.10;91.80
68691;DHT22;55675;49.588;8.640;2023-04-03T05:22:08;3.10;91.80
68691;DHT22;55675;49.588;8.640;2023-04-03T05:24:33;3.10;91.80
68691;DHT22;55675;49.588;8.640;2023-04-03T05:26:59;3.10;91.80
68691;DHT22;55675;49.588;8.640;2023-04-03T05:29:24;3.10;91.90
68691;DHT22;55675;49.588;8.640;2023-04-03T05:31:50;3.10;92.00
68691;DHT22;55675;49.588;8.640;2023-04-03T05:34:16;3.10;92.00
68691;DHT22;55675;49.588;8.640;2023-04-03T05:36:41;3.10;92.00
68691;DHT22;55675;49.588;8.640;2023-04-03T05:39:07;3.20;92.10
68691;DHT22;55675;49.588;8.640;2023-04-03T05:41:33;3.20;92.10
68691;DHT22;55675;49.588;8.640;2023-04-03T05:43:58;3.30;92.20
68691;DHT22;55675;49.588;8.640;2023-04-03T05:46:24;3.40;92.20
68691;DHT22;55675;49.588;8.640;2023-04-03T05:48:49;3.40;92.20
68691;DHT22;55675;49.588;8.640;2023-04-03T05:51:19;3.50;92.30
68691;DHT22;55675;49.588;8.640;2023-04-03T05:53:46;3.60;92.30
68691;DHT22;55675;49.588;8.640;2023-04-03T05:56:12;3.60;92.20
68691;DHT22;55675;49.588;8.640;2023-04-03T05:58:38;3.70;92.30
68691;DHT22;55675;49.588;8.640;2023-04-03T06:01:03;3.80;92.60
68691;DHT22;55675;49.588;8.640;2023-04-03T06:03:29;3.90;92.30
68691;DHT22;55675;49.588;8.640;2023-04-03T06:05:55;4.00;92.30
68691;DHT22;55675;49.588;8.640;2023-04-03T06:08:20;4.10;92.40
68691;DHT22;55675;49.588;8.640;2023-04-03T06:10:46;4.30;92.40
68691;DHT22;55675;49.588;8.640;2023-04-03T06:13:11;4.40;92.60
68691;DHT22;55675;49.588;8.640;2023-04-03T06:15:37;4.60;92.50
68691;DHT22;55675;49.588;8.640;2023-04-03T06:18:03;4.70;92.60
68691;DHT22;55675;49.588;8.640;2023-04-03T06:20:29;4.90;92.50
68691;DHT22;55675;49.588;8.640;2023-04-03T06:22:54;5.00;92.20
68691;DHT22;55675;49.588;8.640;2023-04-03T06:25:20;5.10;92.20
68691;DHT22;55675;49.588;8.640;2023-04-03T06:27:46;5.30;92.10
68691;DHT22;55675;49.588;8.640;2023-04-03T06:30:11;5.40;91.80
68691;DHT22;55675;49.588;8.640;2023-04-03T06:32:37;5.50;91.60
68691;DHT22;55675;49.588;8.640;2023-04-03T06:35:03;5.60;91.40
68691;DHT22;55675;49.588;8.640;2023-04-03T06:37:29;5.70;91.30
68691;DHT22;55675;49.588;8.640;2023-04-03T06:39:55;5.80;91.10
68691;DHT22;55675;49.588;8.640;2023-04-03T06:42:21;5.90;90.90
68691;DHT22;55675;49.588;8.640;2023-04-03T06:44:47;6.00;90.60
68691;DHT22;55675;49.588;8.640;2023-04-03T06:47:13;6.10;90.50
68691;DHT22;55675;49.588;8.640;2023-04-03T06:49:39;6.10;90.30
68691;DHT22;55675;49.588;8.640;2023-04-03T06:52:04;6.10;90.00
68691;DHT22;55675;49.588;8.640;2023-04-03T06:54:31;6.10;89.80
68691;DHT22;55675;49.588;8.640;2023-04-03T06:56:56;6.10;89.70
68691;DHT22;55675;49.588;8.640;2023-04-03T06:59:21;6.10;89.20
68691;DHT22;55675;49.588;8.640;2023-04-03T07:01:47;6.10;88.90
68691;DHT22;55675;49.588;8.640;2023-04-03T07:04:14;6.20;88.80
68691;DHT22;55675;49.588;8.640;2023-04-03T07:06:39;6.30;88.90
68691;DHT22;55675;49.588;8.640;2023-04-03T07:09:05;6.50;88.80
68691;DHT22;55675;49.588;8.640;2023-04-03T07:11:31;6.70;87.50
68691;DHT22;55675;49.588;8.640;2023-04-03T07:13:56;6.80;86.80
68691;DHT22;55675;49.588;8.640;2023-04-03T07:16:22;7.00;86.60
68691;DHT22;55675;49.588;8.640;2023-04-03T07:18:47;7.10;86.90
68691;DHT22;55675;49.588;8.640;2023-04-03T07:21:13;7.30;85.00
68691;DHT22;55675;49.588;8.640;2023-04-03T07:23:38;7.40;84.10
68691;DHT22;55675;49.588;8.640;2023-04-03T07:26:04;7.50;83.90
68691;DHT22;55675;49.588;8.640;2023-04-03T07:28:29;7.60;83.00
68691;DHT22;55675;49.588;8.640;2023-04-03T07:31:00;7.70;82.60
68691;DHT22;55675;49.588;8.640;2023-04-03T07:33:26;7.70;82.40
68691;DHT22;55675;49.588;8.640;2023-04-03T07:35:52;7.80;81.40
68691;DHT22;55675;49.588;8.640;2023-04-03T07:38:17;7.80;81.20
68691;DHT22;55675;49.588;8.640;2023-04-03T07:40:46;7.80;80.50
68691;DHT22;55675;49.588;8.640;2023-04-03T07:43:12;7.90;79.80
68691;DHT22;55675;49.588;8.640;2023-04-03T07:45:38;8.00;79.90
68691;DHT22;55675;49.588;8.640;2023-04-03T07:48:03;8.00;79.70
68691;DHT22;55675;49.588;8.640;2023-04-03T07:50:29;8.10;79.60
68691;DHT22;55675;49.588;8.640;2023-04-03T07:52:56;8.20;79.40
68691;DHT22;55675;49.588;8.640;2023-04-03T07:55:23;8.30;79.50
68691;DHT22;55675;49.588;8.640;2023-04-03T07:57:48;8.30;79.20
68691;DHT22;55675;49.588;8.640;2023-04-03T08:00:14;8.40;79.80
68691;DHT22;55675;49.588;8.640;2023-04-03T08:02:39;8.50;78.70
68691;DHT22;55675;49.588;8.640;2023-04-03T08:05:05;8.60;76.80
68691;DHT22;55675;49.588;8.640;2023-04-03T08:07:30;8.70;75.40
68691;DHT22;55675;49.588;8.640;2023-04-03T08:09:56;8.80;74.00
68691;DHT22;55675;49.588;8.640;2023-04-03T08:12:22;8.80;71.90
68691;DHT22;55675;49.588;8.640;2023-04-03T08:14:47;8.80;71.30
68691;DHT22;55675;49.588;8.640;2023-04-03T08:17:13;8.90;70.50
68691;DHT22;55675;49.588;8.640;2023-04-03T08:19:39;8.90;68.40
68691;DHT22;55675;49.588;8.640;2023-04-03T08:22:05;8.90;68.20
68691;DHT22;55675;49.588;8.640;2023-04-03T08:24:31;9.00;68.70
68691;DHT22;55675;49.588;8.640;2023-04-03T08:26:57;9.10;67.80
68691;DHT22;55675;49.588;8.640;2023-04-03T08:29:23;9.10;65.60
68691;DHT22;55675;49.588;8.640;2023-04-03T08:31:49;9.30;65.50
68691;DHT22;55675;49.588;8.640;2023-04-03T08:34:15;9.50;66.10
68691;DHT22;55675;49.588;8.640;2023-04-03T08:36:41;9.70;65.50
68691;DHT22;55675;49.588;8.640;2023-04-03T08:39:06;9.80;63.80
68691;DHT22;55675;49.588;8.640;2023-04-03T08:41:34;10.00;62.40
68691;DHT22;55675;49.588;8.640;2023-04-03T08:46:47;10.30;63.20
68691;DHT22;55675;49.588;8.640;2023-04-03T08:49:21;10.40;62.40
68691;DHT22;55675;49.588;8.640;2023-04-03T08:51:48;10.50;61.60
68691;DHT22;55675;49.588;8.640;2023-04-03T08:55:17;10.50;60.20
68691;DHT22;55675;49.588;8.640;2023-04-03T08:57:10;10.50;59.30
68691;DHT22;55675;49.588;8.640;2023-04-03T08:59:37;10.60;59.80
68691;DHT22;55675;49.588;8.640;2023-04-03T09:02:12;10.70;58.70
68691;DHT22;55675;49.588;8.640;2023-04-03T09:04:41;10.70;57.00
68691;DHT22;55675;49.588;8.640;2023-04-03T09:07:08;10.70;57.90
68691;DHT22;55675;49.588;8.640;2023-04-03T09:09:39;10.90;57.50
68691;DHT22;55675;49.588;8.640;2023-04-03T09:12:10;11.10;56.80
68691;DHT22;55675;49.588;8.640;2023-04-03T09:22:33;11.80;54.70
68691;DHT22;55675;49.588;8.640;2023-04-03T09:25:12;12.00;54.50
68691;DHT22;55675;49.588;8.640;2023-04-03T09:27:38;12.20;53.30
68691;DHT22;55675;49.588;8.640;2023-04-03T09:30:04;12.30;52.30
68691;DHT22;55675;49.588;8.640;2023-04-03T09:32:34;12.30;53.00
68691;DHT22;55675;49.588;8.640;2023-04-03T09:35:04;12.20;50.20
68691;DHT22;55675;49.588;8.640;2023-04-03T09:37:40;12.00;49.70
68691;DHT22;55675;49.588;8.640;2023-04-03T09:40:11;11.70;49.80
68691;DHT22;55675;49.588;8.640;2023-04-03T09:42:52;11.60;51.90
68691;DHT22;55675;49.588;8.640;2023-04-03T09:45:26;11.60;52.00
68691;DHT22;55675;49.588;8.640;2023-04-03T09:50:30;11.70;52.90
68691;DHT22;55675;49.588;8.640;2023-04-03T09:52:55;11.80;50.40
68691;DHT22;55675;49.588;8.640;2023-04-03T09:55:22;12.00;51.40
68691;DHT22;55675;49.588;8.640;2023-04-03T09:57:58;12.10;48.80
68691;DHT22;55675;49.588;8.640;2023-04-03T10:02:49;12.40;49.30
68691;DHT22;55675;49.588;8.640;2023-04-03T10:05:38;12.60;48.30
68691;DHT22;55675;49.588;8.640;2023-04-03T10:08:23;12.70;48.50
68691;DHT22;55675;49.588;8.640;2023-04-03T10:11:05;12.90;48.10
68691;DHT22;55675;49.588;8.640;2023-04-03T10:13:31;13.00;47.60
68691;DHT22;55675;49.588;8.640;2023-04-03T10:18:42;13.20;46.70
68691;DHT22;55675;49.588;8.640;2023-04-03T10:23:44;13.40;46.00
68691;DHT22;55675;49.588;8.640;2023-04-03T10:26:17;13.40;44.90
68691;DHT22;55675;49.588;8.640;2023-04-03T10:28:56;13.40;45.20
68691;DHT22;55675;49.588;8.640;2023-04-03T10:31:25;13.40;44.70
68691;DHT22;55675;49.588;8.640;2023-04-03T10:34:04;13.50;45.10
68691;DHT22;55675;49.588;8.640;2023-04-03T10:39:16;13.40;43.10
68691;DHT22;55675;49.588;8.640;2023-04-03T10:42:02;13.40;43.10
68691;DHT22;55675;49.588;8.640;2023-04-03T10:44:36;13.50;44.60
68691;DHT22;55675;49.588;8.640;2023-04-03T10:47:24;13.70;45.00
68691;DHT22;55675;49.588;8.640;2023-04-03T10:52:22;14.40;42.90
68691;DHT22;55675;49.588;8.640;2023-04-03T10:54:58;14.50;43.20
68691;DHT22;55675;49.588;8.640;2023-04-03T10:57:25;14.50;43.20
68691;DHT22;55675;49.588;8.640;2023-04-03T10:59:53;14.50;42.50
68691;DHT22;55675;49.588;8.640;2023-04-03T11:02:24;14.50;42.40
68691;DHT22;55675;49.588;8.640;2023-04-03T11:04:53;14.50;42.20
68691;DHT22;55675;49.588;8.640;2023-04-03T11:07:21;14.50;41.40
68691;DHT22;55675;49.588;8.640;2023-04-03T11:09:48;14.50;42.20
68691;DHT22;55675;49.588;8.640;2023-04-03T11:14:40;14.60;41.00
68691;DHT22;55675;49.588;8.640;2023-04-03T11:22:25;14.80;41.30
68691;DHT22;55675;49.588;8.640;2023-04-03T11:24:57;14.90;41.60
68691;DHT22;55675;49.588;8.640;2023-04-03T11:27:24;14.80;40.90
68691;DHT22;55675;49.588;8.640;2023-04-03T11:29:50;14.70;40.30
68691;DHT22;55675;49.588;8.640;2023-04-03T11:35:02;14.70;40.10
68691;DHT22;55675;49.588;8.640;2023-04-03T11:37:34;14.80;40.10
68691;DHT22;55675;49.588;8.640;2023-04-03T11:40:02;14.90;40.40
68691;DHT22;55675;49.588;8.640;2023-04-03T11:42:42;15.10;40.20
68691;DHT22;55675;49.588;8.640;2023-04-03T11:47:46;15.30;40.30
68691;DHT22;55675;49.588;8.640;2023-04-03T11:52:57;15.40;40.50
68691;DHT22;55675;49.588;8.640;2023-04-03T12:13:39;14.50;41.00
68691;DHT22;55675;49.588;8.640;2023-04-03T12:16:06;14.50;41.10
68691;DHT22;55675;49.588;8.640;2023-04-03T12:18:39;14.60;40.90
68691;DHT22;55675;49.588;8.640;2023-04-03T12:21:06;14.70;41.10
68691;DHT22;55675;49.588;8.640;2023-04-03T12:23:33;14.80;40.70
68691;DHT22;55675;49.588;8.640;2023-04-03T12:26:00;14.90;40.40
68691;DHT22;55675;49.588;8.640;2023-04-03T12:28:26;14.80;39.30
68691;DHT22;55675;49.588;8.640;2023-04-03T12:30:52;14.80;40.10
68691;DHT22;55675;49.588;8.640;2023-04-03T12:36:13;14.70;40.40
68691;DHT22;55675;49.588;8.640;2023-04-03T12:41:19;14.70;40.50
68691;DHT22;55675;49.588;8.640;2023-04-03T12:44:08;14.70;40.60
68691;DHT22;55675;49.588;8.640;2023-04-03T12:46:38;14.70;39.60
68691;DHT22;55675;49.588;8.640;2023-04-03T12:49:12;14.80;39.20
68691;DHT22;55675;49.588;8.640;2023-04-03T12:51:43;14.90;37.20
68691;DHT22;55675;49.588;8.640;2023-04-03T12:59:37;14.60;37.50
68691;DHT22;55675;49.588;8.640;2023-04-03T13:02:08;14.60;38.70
68691;DHT22;55675;49.588;8.640;2023-04-03T13:04:37;14.70;38.90
68691;DHT22;55675;49.588;8.640;2023-04-03T13:07:03;14.80;38.80
68691;DHT22;55675;49.588;8.640;2023-04-03T13:09:30;15.10;39.50
68691;DHT22;55675;49.588;8.640;2023-04-03T13:11:57;15.30;39.00
68691;DHT22;55675;49.588;8.640;2023-04-03T13:14:24;15.30;38.10
68691;DHT22;55675;49.588;8.640;2023-04-03T13:16:57;15.00;37.80
68691;DHT22;55675;49.588;8.640;2023-04-03T13:19:23;14.80;38.20
68691;DHT22;55675;49.588;8.640;2023-04-03T13:21:50;14.70;38.50
68691;DHT22;55675;49.588;8.640;2023-04-03T13:24:18;14.70;39.10
68691;DHT22;55675;49.588;8.640;2023-04-03T13:26:44;14.90;39.00
68691;DHT22;55675;49.588;8.640;2023-04-03T13:29:22;14.90;37.90
68691;DHT22;55675;49.588;8.640;2023-04-03T13:31:48;14.90;37.60
68691;DHT22;55675;49.588;8.640;2023-04-03T13:34:18;14.90;37.90
68691;DHT22;55675;49.588;8.640;2023-04-03T13:41:43;15.20;35.60
68691;DHT22;55675;49.588;8.640;2023-04-03T13:46:50;18.40;36.70
68691;DHT22;55675;49.588;8.640;2023-04-03T13:49:28;19.60;31.50
68691;DHT22;55675;49.588;8.640;2023-04-03T13:51:54;19.80;28.30
68691;DHT22;55675;49.588;8.640;2023-04-03T13:54:21;21.50;28.10
68691;DHT22;55675;49.588;8.640;2023-04-03T13:56:52;24.50;26.60
68691;DHT22;55675;49.588;8.640;2023-04-03T14:07:14;36.30;17.50
68691;DHT22;55675;49.588;8.640;2023-04-03T14:09:41;38.90;15.20
68691;DHT22;55675;49.588;8.640;2023-04-03T14:12:13;39.40;14.30
68691;DHT22;55675;49.588;8.640;2023-04-03T14:14:40;39.40;12.90
68691;DHT22;55675;49.588;8.640;2023-04-03T14:17:17;37.70;12.60
68691;DHT22;55675;49.588;8.640;2023-04-03T14:19:45;35.20;13.30
68691;DHT22;55675;49.588;8.640;2023-04-03T14:22:27;32.50;13.50
68691;DHT22;55675;49.588;8.640;2023-04-03T14:24:54;31.20;15.10
68691;DHT22;55675;49.588;8.640;2023-04-03T14:29:46;35.70;13.60
68691;DHT22;55675;49.588;8.640;2023-04-03T14:32:13;37.80;13.50
68691;DHT22;55675;49.588;8.640;2023-04-03T14:34:40;39.80;12.50
68691;DHT22;55675;49.588;8.640;2023-04-03T14:37:11;40.60;11.50
68691;DHT22;55675;49.588;8.640;2023-04-03T14:39:37;41.40;11.10
68691;DHT22;55675;49.588;8.640;2023-04-03T14:42:02;41.90;10.30
68691;DHT22;55675;49.588;8.640;2023-04-03T14:44:28;42.20;10.00
68691;DHT22;55675;49.588;8.640;2023-04-03T14:46:53;42.40;10.00
68691;DHT22;55675;49.588;8.640;2023-04-03T14:49:21;42.80;9.80
68691;DHT22;55675;49.588;8.640;2023-04-03T14:51:47;43.20;9.70
68691;DHT22;55675;49.588;8.640;2023-04-03T14:54:16;43.40;9.30
68691;DHT22;55675;49.588;8.640;2023-04-03T14:56:42;43.60;9.30
68691;DHT22;55675;49.588;8.640;2023-04-03T14:59:14;43.60;9.20
68691;DHT22;55675;49.588;8.640;2023-04-03T15:01:41;43.50;9.40
68691;DHT22;55675;49.588;8.640;2023-04-03T15:04:17;43.50;9.40
68691;DHT22;55675;49.588;8.640;2023-04-03T15:06:43;43.50;9.50
68691;DHT22;55675;49.588;8.640;2023-04-03T15:09:26;43.60;9.40
68691;DHT22;55675;49.588;8.640;2023-04-03T15:11:54;43.60;9.60
68691;DHT22;55675;49.588;8.640;2023-04-03T15:14:20;43.30;9.40
68691;DHT22;55675;49.588;8.640;2023-04-03T15:16:46;43.10;9.70
68691;DHT22;55675;49.588;8.640;2023-04-03T15:19:12;42.70;9.50
68691;DHT22;55675;49.588;8.640;2023-04-03T15:21:39;42.20;9.90
68691;DHT22;55675;49.588;8.640;2023-04-03T15:24:05;42.00;9.70
68691;DHT22;55675;49.588;8.640;2023-04-03T15:26:31;41.50;10.00
68691;DHT22;55675;49.588;8.640;2023-04-03T15:28:57;41.40;9.70
68691;DHT22;55675;49.588;8.640;2023-04-03T15:31:23;41.30;9.70
68691;DHT22;55675;49.588;8.640;2023-04-03T15:33:48;41.00;9.90
68691;DHT22;55675;49.588;8.640;2023-04-03T15:36:14;39.40;9.90
68691;DHT22;55675;49.588;8.640;2023-04-03T15:38:39;38.90;10.50
68691;DHT22;55675;49.588;8.640;2023-04-03T15:41:05;39.00;10.30
68691;DHT22;55675;49.588;8.640;2023-04-03T15:43:31;39.20;10.10
68691;DHT22;55675;49.588;8.640;2023-04-03T15:45:59;39.20;10.30
68691;DHT22;55675;49.588;8.640;2023-04-03T15:48:25;39.10;10.30
68691;DHT22;55675;49.588;8.640;2023-04-03T15:50:51;39.00;9.90
68691;DHT22;55675;49.588;8.640;2023-04-03T15:53:17;38.70;9.80
68691;DHT22;55675;49.588;8.640;2023-04-03T15:55:42;38.80;10.10
68691;DHT22;55675;49.588;8.640;2023-04-03T15:58:08;38.80;10.30
68691;DHT22;55675;49.588;8.640;2023-04-03T16:00:35;38.60;10.10
68691;DHT22;55675;49.588;8.640;2023-04-03T16:03:21;38.00;10.10
68691;DHT22;55675;49.588;8.640;2023-04-03T16:05:48;37.60;10.50
68691;DHT22;55675;49.588;8.640;2023-04-03T16:08:14;37.40;10.50
68691;DHT22;55675;49.588;8.640;2023-04-03T16:10:40;37.50;11.00
68691;DHT22;55675;49.588;8.640;2023-04-03T16:13:06;37.60;10.70
68691;DHT22;55675;49.588;8.640;2023-04-03T16:15:33;37.60;10.70
68691;DHT22;55675;49.588;8.640;2023-04-03T16:18:00;37.60;10.80
68691;DHT22;55675;49.588;8.640;2023-04-03T16:20:26;37.40;10.40
68691;DHT22;55675;49.588;8.640;2023-04-03T16:22:52;36.80;10.30
68691;DHT22;55675;49.588;8.640;2023-04-03T16:25:18;35.80;10.50
68691;DHT22;55675;49.588;8.640;2023-04-03T16:27:44;35.20;11.30
68691;DHT22;55675;49.588;8.640;2023-04-03T16:30:10;34.90;11.40
68691;DHT22;55675;49.588;8.640;2023-04-03T16:32:37;34.70;11.40
68691;DHT22;55675;49.588;8.640;2023-04-03T16:35:04;34.40;12.00
68691;DHT22;55675;49.588;8.640;2023-04-03T16:37:30;34.30;12.20
68691;DHT22;55675;49.588;8.640;2023-04-03T16:39:56;34.30;11.90
68691;DHT22;55675;49.588;8.640;2023-04-03T16:42:24;34.20;11.80
68691;DHT22;55675;49.588;8.640;2023-04-03T16:44:49;33.90;11.90
68691;DHT22;55675;49.588;8.640;2023-04-03T16:47:15;33.40;11.70
68691;DHT22;55675;49.588;8.640;2023-04-03T16:49:44;32.80;11.90
68691;DHT22;55675;49.588;8.640;2023-04-03T16:52:10;32.30;11.90
68691;DHT22;55675;49.588;8.640;2023-04-03T16:54:36;31.80;12.30
68691;DHT22;55675;49.588;8.640;2023-04-03T16:57:01;31.50;12.80
68691;DHT22;55675;49.588;8.640;2023-04-03T16:59:27;31.20;12.80
68691;DHT22;55675;49.588;8.640;2023-04-03T17:01:52;30.60;12.80
68691;DHT22;55675;49.588;8.640;2023-04-03T17:04:18;29.80;13.30
68691;DHT22;55675;49.588;8.640;2023-04-03T17:06:43;28.80;13.40
68691;DHT22;55675;49.588;8.640;2023-04-03T17:09:09;27.90;13.80
68691;DHT22;55675;49.588;8.640;2023-04-03T17:11:34;27.00;14.40